Terminal Aerodrome Forecast
Issued by NWS Medford, OR

Home | Current Version | Previous Version | Text Only | Print | Product List | Glossary On
Versions: 1 2 3 4 5 6 7 8 9 10 11 12 13 14 15 16
000
FTUS46 KMFR 231202 CCB
TAFMFR
TAF COR
KMFR 231202Z 2312/2412 VRB03KT P6SM FEW030 BKN050
     FM232100 32010KT P6SM FEW040 BKN060 BKN150
     FM240200 30007KT P6SM VCSH FEW035 BKN090 OVC120
     FM240600 VRB03KT 6SM -RA BR SCT025 BKN035 OVC050=

USA.gov is the U.S. government's official web portal to all federal, state and local government web resources and services.